LZT6R LBSF-LTBA
Flight info
| Callsign | LZT6R |
|---|---|
| Flight time | 1h 9m |
| Altitude | 22000 |
| Route | LBSF DCT BLO L614 ADORU T302 LTBA |
| Aircraft | MU2/L-V/N |
Departure
| Time | 2026-05-04 13:11 |
|---|---|
| Airport | Sofia Airport (LBSF) |
Arrival
| Time | 2026-05-04 14:20 |
|---|---|
| Airport | İstanbul Atatürk Airport (LTBA) |
| Time | Latitude | Longitude | Altitude | Speed | Heading |
|---|---|---|---|---|---|
| 2026-05-04 12:52 | 42.69355 | 23.39900 | 1757 ft | 0 kts | 197° |
| 2026-05-04 13:04 | 42.69336 | 23.39887 | 1758 ft | 6 kts | 229° |
| 2026-05-04 13:04 | 42.69345 | 23.39801 | 1757 ft | 13 kts | 290° |
| 2026-05-04 13:04 | 42.69331 | 23.39689 | 1755 ft | 13 kts | 199° |
| 2026-05-04 13:04 | 42.69325 | 23.39584 | 1757 ft | 12 kts | 311° |
| 2026-05-04 13:05 | 42.69400 | 23.39567 | 1755 ft | 11 kts | 12° |
| 2026-05-04 13:05 | 42.69478 | 23.39578 | 1753 ft | 10 kts | 1° |
| 2026-05-04 13:05 | 42.69560 | 23.39584 | 1752 ft | 12 kts | 4° |
| 2026-05-04 13:05 | 42.69636 | 23.39593 | 1751 ft | 7 kts | 4° |
| 2026-05-04 13:06 | 42.69638 | 23.39593 | 1751 ft | 0 kts | 5° |
| 2026-05-04 13:08 | 42.69668 | 23.39596 | 1751 ft | 11 kts | 5° |
| 2026-05-04 13:08 | 42.69771 | 23.39640 | 1749 ft | 15 kts | 73° |
| 2026-05-04 13:09 | 42.69772 | 23.39662 | 1749 ft | 0 kts | 95° |
| 2026-05-04 13:10 | 42.69771 | 23.39677 | 1749 ft | 21 kts | 96° |
| 2026-05-04 13:10 | 42.69730 | 23.40363 | 1752 ft | 109 kts | 94° |
| 2026-05-04 13:10 | 42.69664 | 23.41490 | 1953 ft | 126 kts | 98° |
| 2026-05-04 13:10 | 42.69513 | 23.42790 | 2215 ft | 152 kts | 101° |
| 2026-05-04 13:11 | 42.69251 | 23.44257 | 2653 ft | 169 kts | 104° |
| 2026-05-04 13:11 | 42.68915 | 23.45815 | 3206 ft | 174 kts | 105° |
| 2026-05-04 13:11 | 42.68532 | 23.47347 | 3836 ft | 175 kts | 105° |
| 2026-05-04 13:11 | 42.68144 | 23.48919 | 4431 ft | 178 kts | 105° |
| 2026-05-04 13:12 | 42.67752 | 23.50510 | 5047 ft | 179 kts | 105° |
| 2026-05-04 13:12 | 42.67363 | 23.52085 | 5656 ft | 180 kts | 105° |
| 2026-05-04 13:12 | 42.66967 | 23.53689 | 6285 ft | 181 kts | 104° |
| 2026-05-04 13:12 | 42.66572 | 23.55289 | 6919 ft | 181 kts | 104° |
| 2026-05-04 13:13 | 42.66143 | 23.56899 | 7472 ft | 184 kts | 104° |
| 2026-05-04 13:13 | 42.65761 | 23.58553 | 8018 ft | 185 kts | 104° |
| 2026-05-04 13:13 | 42.65360 | 23.60209 | 8586 ft | 185 kts | 103° |
| 2026-05-04 13:13 | 42.64954 | 23.61859 | 9169 ft | 187 kts | 103° |
| 2026-05-04 13:14 | 42.64540 | 23.63531 | 9786 ft | 189 kts | 102° |
| 2026-05-04 13:14 | 42.64126 | 23.65200 | 10397 ft | 189 kts | 102° |
| 2026-05-04 13:14 | 42.63711 | 23.66871 | 10987 ft | 190 kts | 102° |
| 2026-05-04 13:14 | 42.63293 | 23.68553 | 11585 ft | 190 kts | 101° |
| 2026-05-04 13:15 | 42.62873 | 23.70244 | 12177 ft | 191 kts | 102° |
| 2026-05-04 13:15 | 42.62447 | 23.71956 | 12767 ft | 192 kts | 102° |
| 2026-05-04 13:15 | 42.62026 | 23.73646 | 13357 ft | 193 kts | 101° |
| 2026-05-04 13:15 | 42.61597 | 23.75368 | 13949 ft | 193 kts | 101° |
| 2026-05-04 13:16 | 42.61169 | 23.77086 | 14524 ft | 193 kts | 101° |
| 2026-05-04 13:16 | 42.60739 | 23.78803 | 15081 ft | 193 kts | 102° |
| 2026-05-04 13:16 | 42.60316 | 23.80501 | 15616 ft | 194 kts | 102° |
| 2026-05-04 13:16 | 42.59881 | 23.82241 | 16157 ft | 195 kts | 103° |
| 2026-05-04 13:17 | 42.59447 | 23.83977 | 16675 ft | 195 kts | 103° |
| 2026-05-04 13:17 | 42.59016 | 23.85697 | 17171 ft | 196 kts | 103° |
| 2026-05-04 13:17 | 42.58578 | 23.87448 | 17664 ft | 197 kts | 104° |
| 2026-05-04 13:17 | 42.58138 | 23.89202 | 18141 ft | 197 kts | 104° |
| 2026-05-04 13:18 | 42.57700 | 23.90948 | 18615 ft | 198 kts | 104° |
| 2026-05-04 13:18 | 42.57260 | 23.92703 | 19100 ft | 197 kts | 104° |
| 2026-05-04 13:18 | 42.56819 | 23.94459 | 19578 ft | 196 kts | 104° |
| 2026-05-04 13:18 | 42.56382 | 23.96197 | 20037 ft | 195 kts | 104° |
| 2026-05-04 13:19 | 42.55952 | 23.97906 | 20496 ft | 194 kts | 104° |
| 2026-05-04 13:19 | 42.55661 | 23.99062 | 20797 ft | 194 kts | 104° |
| 2026-05-04 13:19 | 42.55085 | 24.01350 | 21382 ft | 193 kts | 104° |
| 2026-05-04 13:19 | 42.54649 | 24.03080 | 21700 ft | 197 kts | 105° |
| 2026-05-04 13:20 | 42.54200 | 24.04866 | 21891 ft | 207 kts | 106° |
| 2026-05-04 13:20 | 42.53723 | 24.06751 | 22080 ft | 214 kts | 106° |
| 2026-05-04 13:20 | 42.53228 | 24.08716 | 22109 ft | 227 kts | 108° |
| 2026-05-04 13:20 | 42.52710 | 24.10767 | 22114 ft | 238 kts | 108° |
| 2026-05-04 13:21 | 42.52163 | 24.12927 | 22109 ft | 246 kts | 108° |
| 2026-05-04 13:21 | 42.51601 | 24.15148 | 22110 ft | 252 kts | 108° |
| 2026-05-04 13:21 | 42.51025 | 24.17423 | 22104 ft | 257 kts | 108° |
| 2026-05-04 13:21 | 42.50445 | 24.19726 | 22106 ft | 261 kts | 107° |
| 2026-05-04 13:22 | 42.49859 | 24.22056 | 22106 ft | 263 kts | 107° |
| 2026-05-04 13:22 | 42.49267 | 24.24406 | 22103 ft | 265 kts | 107° |
| 2026-05-04 13:22 | 42.48667 | 24.26774 | 22102 ft | 266 kts | 107° |
| 2026-05-04 13:22 | 42.48066 | 24.29147 | 22102 ft | 267 kts | 107° |
| 2026-05-04 13:23 | 42.47461 | 24.31529 | 22099 ft | 268 kts | 107° |
| 2026-05-04 13:23 | 42.46851 | 24.33918 | 22101 ft | 269 kts | 107° |
| 2026-05-04 13:23 | 42.46243 | 24.36303 | 22100 ft | 269 kts | 107° |
| 2026-05-04 13:23 | 42.45623 | 24.38721 | 22096 ft | 269 kts | 107° |
| 2026-05-04 13:24 | 42.45015 | 24.41105 | 22097 ft | 270 kts | 107° |
| 2026-05-04 13:24 | 42.44402 | 24.43501 | 22097 ft | 270 kts | 107° |
| 2026-05-04 13:24 | 42.43786 | 24.45898 | 22094 ft | 270 kts | 107° |
| 2026-05-04 13:25 | 42.42550 | 24.50705 | 22098 ft | 270 kts | 107° |
| 2026-05-04 13:25 | 42.41940 | 24.53076 | 22092 ft | 271 kts | 107° |
| 2026-05-04 13:25 | 42.41317 | 24.55499 | 22091 ft | 271 kts | 107° |
| 2026-05-04 13:25 | 42.40700 | 24.57888 | 22089 ft | 271 kts | 107° |
| 2026-05-04 13:26 | 42.40081 | 24.60289 | 22089 ft | 271 kts | 107° |
| 2026-05-04 13:26 | 42.39460 | 24.62684 | 22090 ft | 271 kts | 107° |
| 2026-05-04 13:26 | 42.38843 | 24.65073 | 22091 ft | 271 kts | 107° |
| 2026-05-04 13:26 | 42.38211 | 24.67514 | 22090 ft | 271 kts | 107° |
| 2026-05-04 13:27 | 42.37593 | 24.69897 | 22091 ft | 271 kts | 107° |
| 2026-05-04 13:27 | 42.36965 | 24.72313 | 22085 ft | 271 kts | 107° |
| 2026-05-04 13:27 | 42.36339 | 24.74724 | 22087 ft | 272 kts | 107° |
| 2026-05-04 13:27 | 42.35715 | 24.77125 | 22092 ft | 272 kts | 107° |
| 2026-05-04 13:28 | 42.35093 | 24.79514 | 22087 ft | 272 kts | 107° |
| 2026-05-04 13:28 | 42.34465 | 24.81927 | 22090 ft | 272 kts | 107° |
| 2026-05-04 13:28 | 42.33838 | 24.84331 | 22093 ft | 272 kts | 107° |
| 2026-05-04 13:28 | 42.33200 | 24.86773 | 22091 ft | 272 kts | 107° |
| 2026-05-04 13:29 | 42.32575 | 24.89165 | 22087 ft | 273 kts | 107° |
| 2026-05-04 13:29 | 42.31948 | 24.91564 | 22088 ft | 273 kts | 107° |
| 2026-05-04 13:29 | 42.31312 | 24.93998 | 22084 ft | 272 kts | 107° |
| 2026-05-04 13:29 | 42.30682 | 24.96394 | 22086 ft | 272 kts | 107° |
| 2026-05-04 13:30 | 42.30054 | 24.98780 | 22097 ft | 272 kts | 107° |
| 2026-05-04 13:30 | 42.29419 | 25.01202 | 22092 ft | 272 kts | 107° |
| 2026-05-04 13:30 | 42.28788 | 25.03606 | 22092 ft | 273 kts | 107° |
| 2026-05-04 13:30 | 42.28159 | 25.05995 | 22094 ft | 273 kts | 107° |
| 2026-05-04 13:31 | 42.27520 | 25.08424 | 22088 ft | 273 kts | 107° |
| 2026-05-04 13:31 | 42.26888 | 25.10826 | 22083 ft | 273 kts | 108° |
| 2026-05-04 13:31 | 42.26253 | 25.13235 | 22079 ft | 273 kts | 108° |
| 2026-05-04 13:31 | 42.25620 | 25.15637 | 22078 ft | 272 kts | 108° |
| 2026-05-04 13:32 | 42.24986 | 25.18034 | 22077 ft | 272 kts | 108° |
| 2026-05-04 13:32 | 42.24350 | 25.20428 | 22079 ft | 271 kts | 108° |
| 2026-05-04 13:32 | 42.23714 | 25.22825 | 22076 ft | 271 kts | 108° |
| 2026-05-04 13:32 | 42.23082 | 25.25213 | 22076 ft | 271 kts | 108° |
| 2026-05-04 13:33 | 42.22442 | 25.27619 | 22077 ft | 271 kts | 108° |
| 2026-05-04 13:33 | 42.21812 | 25.29988 | 22076 ft | 271 kts | 108° |
| 2026-05-04 13:33 | 42.21171 | 25.32390 | 22078 ft | 271 kts | 108° |
| 2026-05-04 13:33 | 42.20540 | 25.34764 | 22075 ft | 271 kts | 108° |
| 2026-05-04 13:34 | 42.19902 | 25.37157 | 22074 ft | 271 kts | 108° |
| 2026-05-04 13:34 | 42.19267 | 25.39535 | 22076 ft | 271 kts | 108° |
| 2026-05-04 13:34 | 42.18626 | 25.41936 | 22076 ft | 271 kts | 108° |
| 2026-05-04 13:34 | 42.17993 | 25.44297 | 22076 ft | 271 kts | 108° |
| 2026-05-04 13:35 | 42.17350 | 25.46701 | 22078 ft | 271 kts | 108° |
| 2026-05-04 13:35 | 42.16078 | 25.51452 | 22082 ft | 271 kts | 108° |
| 2026-05-04 13:35 | 42.15441 | 25.53827 | 22079 ft | 271 kts | 108° |
| 2026-05-04 13:36 | 42.14799 | 25.56210 | 22079 ft | 271 kts | 108° |
| 2026-05-04 13:36 | 42.14155 | 25.58610 | 22079 ft | 271 kts | 108° |
| 2026-05-04 13:36 | 42.13515 | 25.60984 | 22086 ft | 271 kts | 108° |
| 2026-05-04 13:36 | 42.12873 | 25.63373 | 22079 ft | 271 kts | 107° |
| 2026-05-04 13:37 | 42.12226 | 25.65771 | 22080 ft | 272 kts | 108° |
| 2026-05-04 13:37 | 42.11586 | 25.68144 | 22082 ft | 271 kts | 108° |
| 2026-05-04 13:37 | 42.10941 | 25.70524 | 22081 ft | 272 kts | 108° |
| 2026-05-04 13:37 | 42.10512 | 25.72109 | 22085 ft | 272 kts | 108° |
| 2026-05-04 13:38 | 42.09643 | 25.75322 | 22080 ft | 272 kts | 108° |
| 2026-05-04 13:38 | 42.09002 | 25.77690 | 22083 ft | 272 kts | 108° |
| 2026-05-04 13:38 | 42.08352 | 25.80088 | 22081 ft | 273 kts | 108° |
| 2026-05-04 13:38 | 42.07698 | 25.82493 | 22083 ft | 272 kts | 108° |
| 2026-05-04 13:39 | 42.07039 | 25.84918 | 22084 ft | 273 kts | 108° |
| 2026-05-04 13:39 | 42.06393 | 25.87291 | 22087 ft | 273 kts | 108° |
| 2026-05-04 13:39 | 42.05739 | 25.89694 | 22090 ft | 273 kts | 108° |
| 2026-05-04 13:39 | 42.05082 | 25.92105 | 22090 ft | 273 kts | 108° |
| 2026-05-04 13:40 | 42.04430 | 25.94494 | 22087 ft | 273 kts | 108° |
| 2026-05-04 13:40 | 42.03775 | 25.96892 | 22095 ft | 273 kts | 108° |
| 2026-05-04 13:40 | 42.03122 | 25.99285 | 22095 ft | 274 kts | 108° |
| 2026-05-04 13:40 | 42.02464 | 26.01688 | 22092 ft | 274 kts | 108° |
| 2026-05-04 13:41 | 42.01812 | 26.04069 | 22101 ft | 274 kts | 108° |
| 2026-05-04 13:41 | 42.01160 | 26.06450 | 22109 ft | 274 kts | 108° |
| 2026-05-04 13:41 | 42.00497 | 26.08862 | 22107 ft | 274 kts | 107° |
| 2026-05-04 13:42 | 41.99182 | 26.13657 | 22106 ft | 274 kts | 108° |
| 2026-05-04 13:42 | 41.98525 | 26.16061 | 22099 ft | 274 kts | 108° |
| 2026-05-04 13:42 | 41.97865 | 26.18456 | 22102 ft | 274 kts | 109° |
| 2026-05-04 13:42 | 41.97203 | 26.20856 | 22085 ft | 274 kts | 109° |
| 2026-05-04 13:43 | 41.96540 | 26.23254 | 22088 ft | 273 kts | 109° |
| 2026-05-04 13:43 | 41.95884 | 26.25626 | 22066 ft | 273 kts | 108° |
| 2026-05-04 13:43 | 41.95225 | 26.28024 | 21955 ft | 276 kts | 108° |
| 2026-05-04 13:43 | 41.94559 | 26.30458 | 21837 ft | 278 kts | 108° |
| 2026-05-04 13:44 | 41.93889 | 26.32905 | 21694 ft | 281 kts | 108° |
| 2026-05-04 13:44 | 41.93216 | 26.35350 | 21541 ft | 283 kts | 108° |
| 2026-05-04 13:44 | 41.92525 | 26.37855 | 21392 ft | 284 kts | 108° |
| 2026-05-04 13:44 | 41.91843 | 26.40329 | 21254 ft | 285 kts | 108° |
| 2026-05-04 13:45 | 41.91145 | 26.42850 | 21116 ft | 286 kts | 108° |
| 2026-05-04 13:45 | 41.90456 | 26.45332 | 20971 ft | 287 kts | 107° |
| 2026-05-04 13:45 | 41.89762 | 26.47847 | 20783 ft | 288 kts | 107° |
| 2026-05-04 13:45 | 41.89067 | 26.50348 | 20605 ft | 290 kts | 108° |
| 2026-05-04 13:46 | 41.88358 | 26.52901 | 20428 ft | 291 kts | 107° |
| 2026-05-04 13:46 | 41.87656 | 26.55423 | 20266 ft | 291 kts | 107° |
| 2026-05-04 13:46 | 41.86893 | 26.57961 | 20092 ft | 293 kts | 112° |
| 2026-05-04 13:46 | 41.85929 | 26.60356 | 19925 ft | 294 kts | 115° |
| 2026-05-04 13:47 | 41.84985 | 26.62797 | 19754 ft | 295 kts | 114° |
| 2026-05-04 13:47 | 41.84050 | 26.65233 | 19578 ft | 296 kts | 114° |
| 2026-05-04 13:47 | 41.83104 | 26.67690 | 19401 ft | 297 kts | 114° |
| 2026-05-04 13:47 | 41.82165 | 26.70141 | 19221 ft | 298 kts | 114° |
| 2026-05-04 13:48 | 41.81218 | 26.72604 | 19057 ft | 298 kts | 114° |
| 2026-05-04 13:48 | 41.80269 | 26.75071 | 18828 ft | 301 kts | 114° |
| 2026-05-04 13:48 | 41.79310 | 26.77581 | 18587 ft | 302 kts | 114° |
| 2026-05-04 13:48 | 41.78346 | 26.80092 | 18367 ft | 304 kts | 114° |
| 2026-05-04 13:49 | 41.77359 | 26.82628 | 18128 ft | 306 kts | 116° |
| 2026-05-04 13:49 | 41.76071 | 26.84903 | 17884 ft | 311 kts | 131° |
| 2026-05-04 13:49 | 41.74349 | 26.86692 | 17653 ft | 316 kts | 146° |
| 2026-05-04 13:49 | 41.72319 | 26.87884 | 17428 ft | 319 kts | 160° |
| 2026-05-04 13:50 | 41.70178 | 26.88621 | 17221 ft | 320 kts | 165° |
| 2026-05-04 13:50 | 41.68013 | 26.89287 | 17015 ft | 320 kts | 165° |
| 2026-05-04 13:50 | 41.65839 | 26.89962 | 16808 ft | 320 kts | 165° |
| 2026-05-04 13:50 | 41.63684 | 26.90635 | 16599 ft | 319 kts | 164° |
| 2026-05-04 13:51 | 41.61527 | 26.91317 | 16400 ft | 319 kts | 163° |
| 2026-05-04 13:51 | 41.59365 | 26.92011 | 16206 ft | 319 kts | 163° |
| 2026-05-04 13:51 | 41.57203 | 26.92712 | 16012 ft | 319 kts | 163° |
| 2026-05-04 13:51 | 41.55051 | 26.93416 | 15809 ft | 319 kts | 163° |
| 2026-05-04 13:52 | 41.50727 | 26.94858 | 15423 ft | 319 kts | 162° |
| 2026-05-04 13:52 | 41.48602 | 26.95576 | 15232 ft | 319 kts | 162° |
| 2026-05-04 13:52 | 41.46432 | 26.96242 | 15033 ft | 320 kts | 167° |
| 2026-05-04 13:53 | 41.44188 | 26.96475 | 14834 ft | 323 kts | 178° |
| 2026-05-04 13:53 | 41.41936 | 26.96183 | 14649 ft | 326 kts | 188° |
| 2026-05-04 13:53 | 41.39694 | 26.95596 | 14443 ft | 325 kts | 185° |
| 2026-05-04 13:54 | 41.35195 | 26.95331 | 14097 ft | 324 kts | 179° |
| 2026-05-04 13:54 | 41.32935 | 26.95272 | 13920 ft | 324 kts | 178° |
| 2026-05-04 13:54 | 41.28431 | 26.95167 | 13563 ft | 324 kts | 178° |
| 2026-05-04 13:55 | 41.26164 | 26.95113 | 13397 ft | 324 kts | 178° |
| 2026-05-04 13:55 | 41.21664 | 26.95006 | 13070 ft | 324 kts | 178° |
| 2026-05-04 13:55 | 41.19393 | 26.94957 | 12896 ft | 323 kts | 178° |
| 2026-05-04 13:56 | 41.17165 | 26.95129 | 12735 ft | 321 kts | 169° |
| 2026-05-04 13:56 | 41.14947 | 26.95481 | 12573 ft | 321 kts | 172° |
| 2026-05-04 13:56 | 41.10497 | 26.95994 | 12247 ft | 320 kts | 172° |
| 2026-05-04 13:57 | 41.08295 | 26.96261 | 12117 ft | 320 kts | 172° |
| 2026-05-04 13:57 | 41.06102 | 26.96515 | 12082 ft | 316 kts | 172° |
| 2026-05-04 13:58 | 40.99600 | 26.97232 | 12088 ft | 309 kts | 172° |
| 2026-05-04 13:58 | 40.95327 | 26.97730 | 12090 ft | 309 kts | 172° |
| 2026-05-04 13:58 | 40.93236 | 26.98199 | 12050 ft | 303 kts | 150° |
| 2026-05-04 13:59 | 40.91743 | 27.00012 | 12118 ft | 288 kts | 125° |
| 2026-05-04 13:59 | 40.90493 | 27.02091 | 12116 ft | 287 kts | 121° |
| 2026-05-04 13:59 | 40.88124 | 27.06310 | 12086 ft | 285 kts | 120° |
| 2026-05-04 14:00 | 40.87249 | 27.08574 | 12063 ft | 273 kts | 97° |
| 2026-05-04 14:00 | 40.86968 | 27.13495 | 12013 ft | 270 kts | 87° |
| 2026-05-04 14:00 | 40.86966 | 27.15980 | 11911 ft | 273 kts | 86° |
| 2026-05-04 14:01 | 40.86975 | 27.18482 | 11817 ft | 274 kts | 86° |
| 2026-05-04 14:01 | 40.86970 | 27.21018 | 11724 ft | 275 kts | 86° |
| 2026-05-04 14:01 | 40.86969 | 27.26059 | 11466 ft | 276 kts | 86° |
| 2026-05-04 14:02 | 40.86961 | 27.28605 | 11316 ft | 275 kts | 86° |
| 2026-05-04 14:02 | 40.86950 | 27.31115 | 11163 ft | 274 kts | 86° |
| 2026-05-04 14:02 | 40.86940 | 27.33599 | 11006 ft | 274 kts | 86° |
| 2026-05-04 14:02 | 40.86933 | 27.36119 | 10852 ft | 273 kts | 86° |
| 2026-05-04 14:03 | 40.86926 | 27.38633 | 10698 ft | 273 kts | 86° |
| 2026-05-04 14:03 | 40.87070 | 27.41088 | 10552 ft | 271 kts | 80° |
| 2026-05-04 14:03 | 40.87176 | 27.43584 | 10400 ft | 272 kts | 86° |
| 2026-05-04 14:03 | 40.87139 | 27.46091 | 10246 ft | 273 kts | 87° |
| 2026-05-04 14:04 | 40.87245 | 27.51072 | 9954 ft | 271 kts | 83° |
| 2026-05-04 14:04 | 40.87223 | 27.53549 | 9811 ft | 273 kts | 90° |
| 2026-05-04 14:04 | 40.87091 | 27.56044 | 9665 ft | 273 kts | 88° |
| 2026-05-04 14:05 | 40.87055 | 27.61068 | 9349 ft | 273 kts | 86° |
| 2026-05-04 14:05 | 40.87035 | 27.63568 | 9188 ft | 274 kts | 87° |
| 2026-05-04 14:05 | 40.87018 | 27.66066 | 9029 ft | 274 kts | 88° |
| 2026-05-04 14:06 | 40.86995 | 27.68588 | 8885 ft | 275 kts | 88° |
| 2026-05-04 14:06 | 40.86978 | 27.71107 | 8744 ft | 274 kts | 87° |
| 2026-05-04 14:06 | 40.86958 | 27.73627 | 8513 ft | 275 kts | 87° |
| 2026-05-04 14:06 | 40.86940 | 27.76129 | 8281 ft | 276 kts | 87° |
| 2026-05-04 14:07 | 40.86924 | 27.78675 | 8037 ft | 276 kts | 88° |
| 2026-05-04 14:07 | 40.86903 | 27.81224 | 7806 ft | 277 kts | 88° |
| 2026-05-04 14:07 | 40.86880 | 27.83747 | 7600 ft | 278 kts | 88° |
| 2026-05-04 14:07 | 40.86860 | 27.86309 | 7361 ft | 278 kts | 88° |
| 2026-05-04 14:08 | 40.86847 | 27.88839 | 7115 ft | 275 kts | 88° |
| 2026-05-04 14:08 | 40.86818 | 27.91354 | 6879 ft | 271 kts | 88° |
| 2026-05-04 14:08 | 40.86769 | 27.93806 | 6645 ft | 270 kts | 88° |
| 2026-05-04 14:08 | 40.86730 | 27.96295 | 6409 ft | 269 kts | 88° |
| 2026-05-04 14:09 | 40.86666 | 28.01127 | 5906 ft | 258 kts | 89° |
| 2026-05-04 14:09 | 40.86581 | 28.03488 | 5633 ft | 255 kts | 89° |
| 2026-05-04 14:10 | 40.86505 | 28.08103 | 5090 ft | 251 kts | 88° |
| 2026-05-04 14:10 | 40.86476 | 28.10394 | 4824 ft | 251 kts | 88° |
| 2026-05-04 14:10 | 40.86451 | 28.12684 | 4560 ft | 250 kts | 88° |
| 2026-05-04 14:10 | 40.86422 | 28.14994 | 4297 ft | 250 kts | 89° |
| 2026-05-04 14:11 | 40.86383 | 28.17275 | 4048 ft | 250 kts | 89° |
| 2026-05-04 14:11 | 40.86211 | 28.21863 | 3547 ft | 247 kts | 89° |
| 2026-05-04 14:11 | 40.86179 | 28.24103 | 3303 ft | 244 kts | 88° |
| 2026-05-04 14:12 | 40.86141 | 28.26337 | 3157 ft | 239 kts | 89° |
| 2026-05-04 14:12 | 40.86090 | 28.28478 | 3132 ft | 232 kts | 89° |
| 2026-05-04 14:12 | 40.86002 | 28.32633 | 3122 ft | 223 kts | 88° |
| 2026-05-04 14:13 | 40.85965 | 28.34680 | 3123 ft | 221 kts | 88° |
| 2026-05-04 14:13 | 40.85930 | 28.36710 | 3125 ft | 219 kts | 88° |
| 2026-05-04 14:13 | 40.85898 | 28.38698 | 3129 ft | 219 kts | 88° |
| 2026-05-04 14:13 | 40.85867 | 28.40705 | 3125 ft | 219 kts | 88° |
| 2026-05-04 14:14 | 40.85835 | 28.42731 | 3117 ft | 218 kts | 88° |
| 2026-05-04 14:14 | 40.85772 | 28.46725 | 3129 ft | 218 kts | 88° |
| 2026-05-04 14:14 | 40.85739 | 28.48734 | 3127 ft | 219 kts | 88° |
| 2026-05-04 14:15 | 40.85676 | 28.52732 | 3123 ft | 219 kts | 88° |
| 2026-05-04 14:15 | 40.85617 | 28.56759 | 3122 ft | 218 kts | 85° |
| 2026-05-04 14:16 | 40.86977 | 28.60196 | 3123 ft | 214 kts | 57° |
| 2026-05-04 14:16 | 40.87759 | 28.61854 | 3145 ft | 214 kts | 55° |
| 2026-05-04 14:17 | 40.89321 | 28.65243 | 3106 ft | 216 kts | 58° |
| 2026-05-04 14:17 | 40.90144 | 28.66899 | 3018 ft | 217 kts | 45° |
| 2026-05-04 14:17 | 40.91690 | 28.70337 | 2878 ft | 220 kts | 60° |
| 2026-05-04 14:18 | 40.92325 | 28.71929 | 2805 ft | 178 kts | 61° |
| 2026-05-04 14:18 | 40.93707 | 28.74836 | 1323 ft | 176 kts | 53° |
| 2026-05-04 14:19 | 40.94817 | 28.77300 | 687 ft | 136 kts | 54° |
| 2026-05-04 14:19 | 40.95263 | 28.78248 | 487 ft | 114 kts | 50° |
| 2026-05-04 14:19 | 40.95708 | 28.79141 | 341 ft | 116 kts | 53° |
| 2026-05-04 14:19 | 40.96113 | 28.80046 | 243 ft | 113 kts | 51° |
| 2026-05-04 14:20 | 40.96523 | 28.80912 | 130 ft | 106 kts | 51° |
| 2026-05-04 14:20 | 40.96860 | 28.81609 | 74 ft | 66 kts | 59° |
| 2026-05-04 14:20 | 40.97019 | 28.81946 | 77 ft | 31 kts | 64° |
| 2026-05-04 14:21 | 40.97200 | 28.82357 | 87 ft | 23 kts | 57° |
| 2026-05-04 14:21 | 40.97289 | 28.82537 | 88 ft | 23 kts | 47° |
| 2026-05-04 14:21 | 40.97382 | 28.82644 | 90 ft | 13 kts | 32° |
| 2026-05-04 14:21 | 40.97449 | 28.82691 | 91 ft | 9 kts | 28° |
| 2026-05-04 14:22 | 40.97459 | 28.82698 | 92 ft | 0 kts | 29° |